Time;durP1;ratioP1;P1;durP2;ratioP2;P2;SDS_P1;SDS_P2;PMS_P1;PMS_P2;Temp;Humidity;BMP_temperature;BMP_pressure;BME280_temperature;BME280_humidity;BME280_pressure;Samples;Min_cycle;Max_cycle;Signal;HPM_P1;HPM_P2
2022/05/04 00:00:14;;;;;;;3.27;2.80;;;;;;;;;;4974519;28;20618;-88
2022/05/04 00:03:19;;;;;;;5.13;2.83;;;;;;;;;;4974227;28;20203;-88
2022/05/04 00:06:23;;;;;;;5.40;2.70;;;;;;;;;;4963333;28;20223;-88
2022/05/04 00:09:27;;;;;;;3.57;3.23;;;;;;;;;;4963621;28;20179;-87
2022/05/04 00:12:32;;;;;;;3.60;2.93;;;;;;;;;;4974669;28;20175;-87
2022/05/04 00:15:36;;;;;;;3.37;2.80;;;;;;;;;;4963331;28;20180;-87
2022/05/04 00:18:40;;;;;;;3.50;3.17;;;;;;;;;;4974291;28;20218;-88
2022/05/04 00:21:44;;;;;;;4.07;3.30;;;;;;;;;;4963086;28;20183;-88
2022/05/04 00:24:49;;;;;;;3.03;2.83;;;;;;;;;;4974230;28;20183;-87
2022/05/04 00:27:53;;;;;;;3.50;3.20;;;;;;;;;;4952003;28;20219;-88
2022/05/04 00:30:57;;;;;;;5.70;3.70;;;;;;;;;;4962830;28;20191;-87
2022/05/04 00:34:01;;;;;;;4.40;3.60;;;;;;;;;;4974385;28;20543;-87
2022/05/04 00:37:06;;;;;;;3.83;3.37;;;;;;;;;;4974261;28;20230;-86
2022/05/04 00:40:10;;;;;;;3.47;3.13;;;;;;;;;;4974201;28;20523;-86
2022/05/04 00:43:25;;;;;;;3.13;2.83;;;;;;;;;;4974129;28;20187;-87
2022/05/04 00:46:29;;;;;;;4.23;2.93;;;;;;;;;;4974132;28;20207;-87
2022/05/04 00:49:34;;;;;;;4.33;2.73;;;;;;;;;;4963273;28;20183;-86
2022/05/04 00:52:43;;;;;;;4.10;2.83;;;;;;;;;;4974412;28;20183;-87
2022/05/04 00:55:47;;;;;;;4.10;2.73;;;;;;;;;;4966867;28;20183;-86
2022/05/04 00:58:54;;;;;;;3.43;2.57;;;;;;;;;;4978182;28;20222;-86
2022/05/04 01:01:59;;;;;;;4.50;2.70;;;;;;;;;;4977746;28;20191;-86
2022/05/04 01:05:04;;;;;;;2.70;2.20;;;;;;;;;;4977592;28;20630;-87
2022/05/04 01:08:08;;;;;;;3.67;2.50;;;;;;;;;;4977341;28;20214;-87
2022/05/04 01:11:12;;;;;;;2.67;2.43;;;;;;;;;;4977381;28;20179;-86
2022/05/04 01:14:17;;;;;;;2.70;2.50;;;;;;;;;;4977502;28;20614;-87
2022/05/04 01:17:21;;;;;;;4.40;2.50;;;;;;;;;;4966285;28;20222;-87
2022/05/04 01:20:26;;;;;;;3.57;2.47;;;;;;;;;;4977489;28;20191;-87
2022/05/04 01:23:30;;;;;;;3.50;1.87;;;;;;;;;;4966169;28;20183;-87
2022/05/04 01:26:34;;;;;;;2.90;2.40;;;;;;;;;;4977584;28;20215;-87
2022/05/04 01:29:39;;;;;;;2.63;2.40;;;;;;;;;;4976993;28;20630;-87
2022/05/04 01:32:43;;;;;;;3.67;2.83;;;;;;;;;;4965983;28;20202;-86
2022/05/04 01:35:46;;;;;;;2.97;2.67;;;;;;;;;;4976920;28;20198;-87
2022/05/04 01:38:51;;;;;;;3.90;3.07;;;;;;;;;;4976947;28;20222;-87
2022/05/04 01:42:05;;;;;;;3.00;2.70;;;;;;;;;;4965517;28;20202;-87
2022/05/04 01:45:09;;;;;;;4.07;2.53;;;;;;;;;;4976874;28;20532;-87
2022/05/04 01:48:13;;;;;;;4.13;2.83;;;;;;;;;;4976770;28;20211;-87
2022/05/04 01:51:17;;;;;;;3.63;3.10;;;;;;;;;;4976774;28;20179;-87
2022/05/04 01:54:22;;;;;;;3.40;3.10;;;;;;;;;;4966003;28;20183;-87
2022/05/04 01:57:27;;;;;;;4.37;3.50;;;;;;;;;;4976881;28;20554;-87
2022/05/04 02:00:32;;;;;;;3.47;3.10;;;;;;;;;;4976654;28;20179;-87
2022/05/04 02:03:37;;;;;;;4.70;3.03;;;;;;;;;;4976591;28;20178;-87
2022/05/04 02:06:42;;;;;;;4.27;3.47;;;;;;;;;;4965370;28;20662;-87
2022/05/04 02:09:46;;;;;;;3.70;3.37;;;;;;;;;;4977085;28;20646;-87
2022/05/04 02:12:50;;;;;;;3.43;3.13;;;;;;;;;;4976784;28;20183;-87
2022/05/04 02:15:54;;;;;;;4.13;3.60;;;;;;;;;;4965558;28;20187;-87
2022/05/04 02:18:59;;;;;;;5.23;3.67;;;;;;;;;;4965274;28;20689;-87
2022/05/04 02:22:04;;;;;;;4.30;3.70;;;;;;;;;;4976249;28;20527;-87
2022/05/04 02:25:08;;;;;;;4.77;3.40;;;;;;;;;;4976021;28;20183;-87
2022/05/04 02:28:12;;;;;;;3.97;3.07;;;;;;;;;;4964631;28;20234;-87
2022/05/04 02:31:17;;;;;;;3.40;3.10;;;;;;;;;;4976426;28;20199;-87
2022/05/04 02:34:20;;;;;;;3.50;3.10;;;;;;;;;;4975901;28;20188;-87
2022/05/04 02:40:49;;;;;;;3.07;2.77;;;;;;;;;;4964812;28;20183;-87
2022/05/04 02:43:53;;;;;;;3.57;2.87;;;;;;;;;;4964853;28;20183;-87
2022/05/04 02:46:57;;;;;;;3.33;2.67;;;;;;;;;;4975468;28;20551;-87
2022/05/04 02:50:01;;;;;;;4.47;3.10;;;;;;;;;;4976133;28;20183;-87
2022/05/04 02:53:05;;;;;;;3.07;2.60;;;;;;;;;;4964479;28;20179;-86
2022/05/04 02:56:10;;;;;;;3.17;2.83;;;;;;;;;;4976028;28;20183;-87
2022/05/04 02:59:15;;;;;;;4.50;2.73;;;;;;;;;;4961803;28;20187;-86
2022/05/04 03:02:28;;;;;;;3.30;2.80;;;;;;;;;;4980521;28;20195;-87
2022/05/04 03:05:33;;;;;;;3.50;2.97;;;;;;;;;;4965215;28;20626;-87
2022/05/04 03:08:37;;;;;;;3.50;3.17;;;;;;;;;;4975700;28;20210;-87
2022/05/04 03:11:56;;;;;;;5.07;2.80;;;;;;;;;;4944683;28;20187;-86
2022/05/04 03:15:01;;;;;;;3.07;2.77;;;;;;;;;;4933782;28;20188;-86
2022/05/04 03:18:05;;;;;;;3.57;3.27;;;;;;;;;;4944225;29;20219;-86
2022/05/04 03:21:09;;;;;;;3.63;3.33;;;;;;;;;;4948312;28;20195;-86
2022/05/04 03:24:14;;;;;;;4.00;3.60;;;;;;;;;;4974238;28;20203;-86
2022/05/04 03:27:18;;;;;;;5.00;3.10;;;;;;;;;;4959420;28;20231;-86
2022/05/04 03:30:22;;;;;;;3.93;3.20;;;;;;;;;;4958661;28;20198;-86
2022/05/04 03:33:27;;;;;;;4.20;3.47;;;;;;;;;;4984145;28;20183;-86
2022/05/04 03:36:31;;;;;;;4.27;3.13;;;;;;;;;;4933401;29;20176;-86
2022/05/04 03:39:35;;;;;;;4.20;3.50;;;;;;;;;;4941307;28;20191;-88
2022/05/04 03:42:40;;;;;;;4.43;3.00;;;;;;;;;;4963239;28;20194;-88
2022/05/04 03:45:44;;;;;;;6.57;3.70;;;;;;;;;;4953591;28;20206;-87
2022/05/04 03:48:53;;;;;;;3.83;3.43;;;;;;;;;;4932649;29;20211;-88
2022/05/04 03:51:58;;;;;;;4.50;3.73;;;;;;;;;;4954821;29;20188;-89
2022/05/04 03:55:02;;;;;;;3.30;3.00;;;;;;;;;;4943885;29;20199;-88
2022/05/04 03:58:06;;;;;;;3.77;3.37;;;;;;;;;;4955319;28;20211;-88
2022/05/04 04:01:12;;;;;;;4.97;4.00;;;;;;;;;;4932910;29;20183;-88
2022/05/04 04:04:16;;;;;;;5.40;3.70;;;;;;;;;;4933414;29;20287;-88
2022/05/04 04:07:20;;;;;;;5.80;3.67;;;;;;;;;;4943567;28;20231;-88
2022/05/04 04:10:24;;;;;;;4.47;3.80;;;;;;;;;;4943954;29;20183;-88
2022/05/04 04:13:28;;;;;;;4.43;3.63;;;;;;;;;;4954848;29;20187;-88
2022/05/04 04:16:32;;;;;;;6.00;3.90;;;;;;;;;;4932551;29;20187;-88
2022/05/04 04:19:36;;;;;;;4.17;3.70;;;;;;;;;;4932808;29;20187;-88
2022/05/04 04:22:40;;;;;;;4.70;4.20;;;;;;;;;;4954481;29;20551;-88
2022/05/04 04:25:45;;;;;;;6.17;4.27;;;;;;;;;;4954894;29;20176;-88
2022/05/04 04:28:49;;;;;;;6.33;4.03;;;;;;;;;;4945704;29;20231;-88
2022/05/04 04:31:53;;;;;;;6.13;4.53;;;;;;;;;;4946913;29;20206;-88
2022/05/04 04:34:58;;;;;;;5.63;4.43;;;;;;;;;;4948266;29;20199;-88
2022/05/04 04:38:02;;;;;;;5.43;4.03;;;;;;;;;;4961444;28;20231;-87
2022/05/04 04:41:06;;;;;;;5.53;4.13;;;;;;;;;;4961765;29;20195;-86
2022/05/04 04:44:12;;;;;;;5.63;4.10;;;;;;;;;;4949635;29;20183;-87
2022/05/04 04:47:18;;;;;;;7.57;4.37;;;;;;;;;;4958553;28;20231;-88
2022/05/04 04:50:25;;;;;;;5.83;4.33;;;;;;;;;;4947063;29;20187;-88
2022/05/04 04:53:29;;;;;;;6.47;4.37;;;;;;;;;;4959071;29;20179;-87
2022/05/04 04:56:33;;;;;;;4.93;4.00;;;;;;;;;;4948991;29;20531;-87
2022/05/04 04:59:38;;;;;;;4.63;4.23;;;;;;;;;;4937746;29;20183;-87
2022/05/04 05:02:42;;;;;;;5.17;4.33;;;;;;;;;;4958681;29;20187;-88
2022/05/04 05:05:47;;;;;;;5.83;4.30;;;;;;;;;;4938002;29;20188;-87
2022/05/04 05:08:51;;;;;;;5.57;4.50;;;;;;;;;;4946292;29;20224;-88
